Cold Bay Airport Cold Bay US
ICAO: PACD
IATA:
Category: Medium
Scheduled Services:

Elevation: 96 ft
TransAlt. 18000 ft.

Airport Communications:
ASOS:135.75
ANCHORAGE CNTR:118.5
CTAF:123.6
RDO:123.6
KENAI RDO:123.6

PACD Zoom In..

If you have problems with the map follow the link
https://www.worldairports.se/pages/airport.php?
ICAO=PACD

Runways:

(A) RW 08 length 6235 ft width 150 ft
---- / hdg 83

(B) RW 15 length 10180 ft width 150 ft
ILS 110.30 / hdg 146

(C) RW 26 length 6235 ft width 150 ft
---- / hdg 263

(D) RW 33 length 10180 ft width 150 ft
---- / hdg 326

Location; PACD
Day. 20 / Time. 20.53 Zulu
* Altimeter: 29.84
* Temperature: 06° c. 42.8°f.
* Wind from: 320° Speed 05 kn.
Dewpoint: 01° c.
Visibility: 10 Statute Miles.
Clouds: Broken 3700 ft.
Clouds: Broken 4700 ft.

PACD 202053Z 32005KT 10SM BKN037 BKN047 06/01 A2984 RMK AO2 RAB10E25 SLP107 P0000 60000 T00560006 58010


Wind From 320°
Speed 05 kn.

 
 
jpsmedia.com for Web Design worldairports.se 2019   terms of use